Terminal Aerodrome Forecast
Issued by NWS Wichita, KS

Home | Current Version | Previous Version | Text Only | Print | Product List | Glossary On
Versions: 1 2 3 4 5 6 7 8 9 10 11 12 13
000
FTUS43 KICT 042331
TAFICT
TAF
KICT 042331Z 0500/0524 19007G17KT P6SM BKN040
     FM050500 14009KT P6SM VCTS SCT050CB OVC100
     FM051700 12010KT P6SM BKN060=

USA.gov is the U.S. government's official web portal to all federal, state and local government web resources and services.